createdAt,value
2023-03-08T00:02:18.026Z,6.05
2023-03-08T00:04:44.742Z,5.25
2023-03-08T00:07:11.451Z,5.05
2023-03-08T00:09:38.942Z,5.35
2023-03-08T00:15:46.418Z,6.00
2023-03-08T00:18:12.947Z,6.15
2023-03-08T00:20:39.583Z,7.13
2023-03-08T00:23:06.196Z,6.15
2023-03-08T00:25:32.803Z,6.25
2023-03-08T00:27:59.409Z,7.13
2023-03-08T00:30:26.319Z,6.57
2023-03-08T00:32:52.958Z,6.40
2023-03-08T00:35:22.426Z,8.32
2023-03-08T00:37:49.049Z,6.93
2023-03-08T00:40:15.867Z,6.70
2023-03-08T00:42:42.451Z,7.40
2023-03-08T00:45:09.870Z,6.72
2023-03-08T00:47:37.605Z,6.70
2023-03-08T00:50:04.519Z,7.63
2023-03-08T00:52:31.176Z,7.70
2023-03-08T00:54:57.852Z,6.43
2023-03-08T00:57:24.519Z,9.18
2023-03-08T00:59:51.097Z,6.70
2023-03-08T01:02:17.752Z,8.55
2023-03-08T01:04:44.325Z,8.73
2023-03-08T01:07:11.018Z,8.40
2023-03-08T01:09:37.708Z,9.23
2023-03-08T01:12:04.676Z,9.45
2023-03-08T01:14:31.264Z,9.65
2023-03-08T01:16:57.875Z,12.55
2023-03-08T01:19:24.465Z,10.02
2023-03-08T01:21:51.146Z,8.27
2023-03-08T01:24:17.744Z,7.70
2023-03-08T01:26:44.403Z,7.57
2023-03-08T01:29:11.052Z,9.57
2023-03-08T01:31:37.703Z,7.80
2023-03-08T01:34:04.279Z,8.85
2023-03-08T01:36:30.922Z,7.15
2023-03-08T01:39:00.817Z,7.55
2023-03-08T01:41:30.296Z,7.18
2023-03-08T01:43:57.374Z,6.90
2023-03-08T01:46:29.927Z,5.95
2023-03-08T01:49:20.344Z,9.07
2023-03-08T01:51:53.873Z,7.80
2023-03-08T01:54:28.465Z,5.78
2023-03-08T01:57:02.466Z,6.80
2023-03-08T01:59:32.651Z,5.93
2023-03-08T02:01:59.716Z,5.80
2023-03-08T02:04:26.822Z,6.28
2023-03-08T02:06:53.532Z,7.82
2023-03-08T02:09:20.968Z,6.90
2023-03-08T02:11:48.830Z,7.00
2023-03-08T02:14:15.458Z,7.20
2023-03-08T02:16:42.225Z,8.25
2023-03-08T02:19:17.243Z,10.48
2023-03-08T02:21:43.924Z,7.75
2023-03-08T02:24:24.973Z,7.63
2023-03-08T02:26:54.825Z,8.00
2023-03-08T02:29:21.441Z,9.25
2023-03-08T02:31:48.078Z,7.75
2023-03-08T02:34:14.717Z,7.93
2023-03-08T02:36:41.306Z,8.63
2023-03-08T02:39:07.952Z,7.53
2023-03-08T02:41:34.631Z,7.20
2023-03-08T02:44:01.285Z,7.25
2023-03-08T02:46:28.729Z,8.35
2023-03-08T02:48:55.444Z,7.22
2023-03-08T02:51:22.010Z,7.85
2023-03-08T02:53:48.653Z,6.95
2023-03-08T02:56:15.240Z,7.15
2023-03-08T02:58:41.872Z,6.63
2023-03-08T03:01:15.433Z,7.63
2023-03-08T03:03:42.465Z,7.60
2023-03-08T03:06:16.325Z,9.48
2023-03-08T03:08:43.099Z,6.60
2023-03-08T03:11:18.581Z,7.90
2023-03-08T03:13:45.602Z,7.18
2023-03-08T03:16:15.797Z,10.82
2023-03-08T03:18:42.858Z,7.78
2023-03-08T03:21:12.470Z,10.00
2023-03-08T03:23:39.406Z,8.30
2023-03-08T03:26:09.540Z,7.68
2023-03-08T03:28:36.310Z,9.52
2023-03-08T03:31:08.088Z,7.72
2023-03-08T03:33:34.899Z,10.95
2023-03-08T03:36:02.228Z,9.90
2023-03-08T03:38:29.299Z,10.55
2023-03-08T03:41:04.220Z,8.25
2023-03-08T03:43:31.614Z,9.43
2023-03-08T03:45:59.648Z,7.80
2023-03-08T03:48:26.614Z,7.72
2023-03-08T03:50:57.551Z,12.65
2023-03-08T03:53:24.981Z,11.30
2023-03-08T03:55:51.666Z,9.45
2023-03-08T03:58:18.330Z,9.60
2023-03-08T04:00:44.905Z,10.23
2023-03-08T04:03:11.573Z,9.50
2023-03-08T04:05:39.962Z,8.93
2023-03-08T04:08:09.630Z,8.75
2023-03-08T04:10:36.272Z,8.55
2023-03-08T04:13:02.921Z,9.38
2023-03-08T04:15:29.548Z,8.00
2023-03-08T04:17:56.246Z,13.23
2023-03-08T04:20:23.856Z,9.63
2023-03-08T04:22:50.678Z,10.30
2023-03-08T04:25:17.500Z,9.40
2023-03-08T04:27:44.172Z,10.15
2023-03-08T04:30:11.947Z,10.60
2023-03-08T04:32:38.620Z,10.02
2023-03-08T04:35:05.851Z,12.13
2023-03-08T04:37:32.509Z,10.68
2023-03-08T04:39:59.141Z,9.55
2023-03-08T04:42:25.957Z,10.18
2023-03-08T04:44:52.608Z,11.07
2023-03-08T04:47:19.250Z,8.43
2023-03-08T04:49:45.859Z,9.32
2023-03-08T04:52:12.509Z,8.45
2023-03-08T04:54:39.098Z,9.95
2023-03-08T04:57:05.704Z,9.10
2023-03-08T04:59:32.481Z,10.02
2023-03-08T05:01:59.110Z,10.13
2023-03-08T05:04:25.858Z,8.32
2023-03-08T05:06:52.430Z,9.40
2023-03-08T05:09:19.065Z,9.45
2023-03-08T05:11:45.707Z,9.90
2023-03-08T05:14:12.342Z,8.60
2023-03-08T05:16:39.061Z,8.05
2023-03-08T05:19:05.728Z,8.10
2023-03-08T05:21:32.425Z,8.18
2023-03-08T05:24:00.391Z,10.85
2023-03-08T05:26:27.065Z,11.07
2023-03-08T05:28:53.661Z,8.95
2023-03-08T05:31:22.177Z,9.35
2023-03-08T05:33:51.137Z,7.70
2023-03-08T05:36:18.491Z,8.93
2023-03-08T05:38:45.580Z,12.57
2023-03-08T05:41:14.490Z,9.25
2023-03-08T05:43:41.276Z,8.38
2023-03-08T05:46:12.416Z,8.70
2023-03-08T05:48:39.409Z,7.55
2023-03-08T05:51:07.535Z,8.70
2023-03-08T05:53:34.386Z,9.02
2023-03-08T05:56:15.593Z,9.05
2023-03-08T05:58:44.065Z,9.05
2023-03-08T06:01:13.689Z,9.25
2023-03-08T06:03:40.694Z,9.45
2023-03-08T06:06:07.521Z,10.82
2023-03-08T06:08:34.211Z,8.73
2023-03-08T06:11:00.902Z,9.38
2023-03-08T06:13:27.559Z,9.27
2023-03-08T06:15:58.696Z,13.13
2023-03-08T06:18:26.312Z,9.95
2023-03-08T06:21:07.610Z,7.50
2023-03-08T06:23:35.634Z,9.90
2023-03-08T06:26:03.848Z,9.55
2023-03-08T06:28:31.025Z,8.80
2023-03-08T06:30:57.916Z,7.70
2023-03-08T06:33:29.897Z,8.32
2023-03-08T06:36:08.824Z,7.15
2023-03-08T06:38:37.636Z,6.88
2023-03-08T06:41:05.312Z,8.38
2023-03-08T06:43:32.123Z,7.95
2023-03-08T06:45:59.211Z,6.55
2023-03-08T06:48:25.817Z,8.40
2023-03-08T06:50:52.545Z,8.25
2023-03-08T06:53:19.205Z,6.15
2023-03-08T06:55:45.853Z,7.40
2023-03-08T06:58:12.487Z,11.15
2023-03-08T07:00:39.401Z,11.45
2023-03-08T07:03:06.143Z,13.18
2023-03-08T07:05:32.825Z,12.35
2023-03-08T07:07:59.410Z,14.35
2023-03-08T07:10:26.040Z,20.17
2023-03-08T07:12:52.773Z,15.77
2023-03-08T07:15:22.904Z,12.13
2023-03-08T07:17:51.787Z,10.63
2023-03-08T07:20:20.585Z,8.25
2023-03-08T07:22:47.619Z,14.35
2023-03-08T07:25:16.725Z,13.93
2023-03-08T07:27:43.908Z,13.48
2023-03-08T07:30:12.975Z,9.30
2023-03-08T07:32:42.893Z,10.13
2023-03-08T07:35:12.089Z,9.05
2023-03-08T07:37:38.871Z,7.40
2023-03-08T07:40:06.885Z,6.53
2023-03-08T07:42:33.930Z,7.53
2023-03-08T07:45:00.580Z,9.57
2023-03-08T07:47:27.587Z,8.95
2023-03-08T07:49:54.150Z,7.55
2023-03-08T07:52:20.870Z,11.95
2023-03-08T07:54:47.464Z,9.43
2023-03-08T07:57:14.809Z,9.15
2023-03-08T07:59:42.320Z,8.65
2023-03-08T08:02:15.756Z,9.25
2023-03-08T08:04:42.357Z,7.68
2023-03-08T08:07:13.282Z,10.07
2023-03-08T08:09:40.092Z,9.80
2023-03-08T08:12:07.417Z,7.70
2023-03-08T08:14:34.246Z,8.75
2023-03-08T08:17:01.009Z,10.50
2023-03-08T08:19:27.628Z,11.88
2023-03-08T08:21:54.312Z,8.20
2023-03-08T08:24:20.899Z,6.88
2023-03-08T08:26:47.494Z,10.60
2023-03-08T08:29:14.148Z,7.18
2023-03-08T08:31:41.371Z,8.13
2023-03-08T08:34:08.685Z,10.55
2023-03-08T08:36:35.281Z,11.82
2023-03-08T08:39:01.942Z,7.40
2023-03-08T08:41:29.797Z,6.68
2023-03-08T08:43:59.034Z,4.93
2023-03-08T08:46:27.882Z,5.30
2023-03-08T08:48:55.518Z,4.40
2023-03-08T08:51:22.174Z,6.20
2023-03-08T08:53:49.146Z,8.18
2023-03-08T08:56:27.688Z,6.32
2023-03-08T08:58:57.193Z,9.57
2023-03-08T09:01:26.595Z,8.88
2023-03-08T09:06:22.568Z,8.95
2023-03-08T09:08:54.846Z,7.07
2023-03-08T09:11:22.442Z,4.68
2023-03-08T09:13:49.110Z,5.88
2023-03-08T09:16:24.534Z,6.05
2023-03-08T09:18:52.351Z,6.13
2023-03-08T09:21:19.432Z,6.05
2023-03-08T09:23:46.590Z,5.70
2023-03-08T09:26:13.593Z,8.48
2023-03-08T09:28:40.613Z,7.85
2023-03-08T09:31:14.981Z,8.77
2023-03-08T09:33:44.658Z,11.20
2023-03-08T09:36:11.989Z,5.95
2023-03-08T09:38:38.800Z,9.13
2023-03-08T09:41:21.741Z,9.82
2023-03-08T09:44:19.609Z,6.43
2023-03-08T09:46:52.480Z,7.38
2023-03-08T09:49:26.014Z,7.32
2023-03-08T09:51:59.655Z,7.03
2023-03-08T09:54:27.884Z,9.32
2023-03-08T09:56:56.403Z,7.68
2023-03-08T09:59:30.365Z,5.33
2023-03-08T10:02:10.324Z,5.88
2023-03-08T10:05:13.989Z,8.35
2023-03-08T10:08:13.151Z,8.43
2023-03-08T10:11:02.125Z,15.27
2023-03-08T10:13:39.211Z,7.55
2023-03-08T10:16:26.277Z,8.85
2023-03-08T10:19:00.451Z,10.30
2023-03-08T10:21:29.796Z,14.27
2023-03-08T10:26:27.945Z,10.90
2023-03-08T10:28:54.927Z,10.70
2023-03-08T10:31:23.153Z,8.40
2023-03-08T10:33:54.117Z,10.63
2023-03-08T10:36:24.208Z,14.43
2023-03-08T10:39:17.590Z,14.32
2023-03-08T10:41:54.498Z,13.82
2023-03-08T10:44:40.895Z,11.55
2023-03-08T10:47:35.139Z,9.15
2023-03-08T10:50:18.551Z,10.32
2023-03-08T10:52:47.277Z,12.82
2023-03-08T10:55:17.228Z,9.23
2023-03-08T10:57:49.808Z,10.80
2023-03-08T11:00:18.084Z,12.73
2023-03-08T11:02:45.243Z,12.88
2023-03-08T11:05:22.169Z,10.45
2023-03-08T11:07:57.983Z,12.70
2023-03-08T11:10:30.329Z,12.45
2023-03-08T11:13:18.621Z,18.75
2023-03-08T11:16:09.767Z,17.60
2023-03-08T11:18:50.335Z,16.38
2023-03-08T11:21:44.884Z,18.63
2023-03-08T11:24:28.595Z,12.32
2023-03-08T11:27:16.616Z,10.43
2023-03-08T11:29:46.408Z,9.88
2023-03-08T11:32:39.142Z,16.17
2023-03-08T11:35:18.087Z,9.43
2023-03-08T11:37:55.093Z,12.35
2023-03-08T11:40:43.647Z,11.05
2023-03-08T11:43:26.865Z,9.90
2023-03-08T11:46:29.503Z,9.13
2023-03-08T11:48:59.087Z,9.93
2023-03-08T11:51:37.061Z,16.63
2023-03-08T11:54:27.465Z,8.73
2023-03-08T11:57:03.523Z,12.15
2023-03-08T11:59:35.741Z,18.48
2023-03-08T12:02:08.120Z,9.65
2023-03-08T12:04:43.747Z,10.25
2023-03-08T12:07:28.141Z,8.93
2023-03-08T12:10:09.185Z,8.82
2023-03-08T12:12:43.732Z,9.02
2023-03-08T12:15:25.347Z,10.25
2023-03-08T12:18:26.051Z,9.70
2023-03-08T12:21:11.974Z,8.02
2023-03-08T12:23:44.292Z,10.25
2023-03-08T12:26:21.924Z,8.32
2023-03-08T12:28:54.634Z,8.57
2023-03-08T12:31:29.506Z,9.70
2023-03-08T12:33:59.360Z,8.00
2023-03-08T12:36:44.891Z,9.30
2023-03-08T12:39:33.617Z,11.45
2023-03-08T12:42:09.554Z,13.40
2023-03-08T12:44:38.173Z,9.55
2023-03-08T12:47:13.729Z,9.80
2023-03-08T12:49:43.715Z,9.10
2023-03-08T12:52:19.851Z,10.80
2023-03-08T12:55:17.619Z,12.23
2023-03-08T12:57:55.623Z,11.98
2023-03-08T13:00:28.230Z,11.20
2023-03-08T13:03:13.225Z,10.60
2023-03-08T13:05:45.327Z,8.73
2023-03-08T13:08:15.117Z,14.35
2023-03-08T13:10:58.678Z,17.50
2023-03-08T13:13:56.021Z,15.63
2023-03-08T13:16:39.504Z,12.80
2023-03-08T13:19:17.086Z,16.30
2023-03-08T13:22:01.886Z,19.55
2023-03-08T13:24:34.996Z,17.60
2023-03-08T13:27:10.381Z,17.17
2023-03-08T13:29:37.106Z,15.45
2023-03-08T13:32:21.892Z,11.27
2023-03-08T13:34:59.806Z,19.60
2023-03-08T13:37:28.527Z,14.68
2023-03-08T13:39:57.828Z,12.63
2023-03-08T13:42:26.697Z,11.05
2023-03-08T13:45:09.098Z,12.20
2023-03-08T13:47:38.796Z,15.13
2023-03-08T13:50:06.259Z,12.93
2023-03-08T13:52:36.637Z,12.60
2023-03-08T13:55:07.362Z,12.88
2023-03-08T13:57:38.050Z,13.65
2023-03-08T14:00:20.276Z,11.93
2023-03-08T14:02:47.819Z,13.02
2023-03-08T14:05:21.128Z,14.77
2023-03-08T14:08:03.961Z,15.45
2023-03-08T14:10:44.898Z,16.23
2023-03-08T14:13:38.834Z,16.30
2023-03-08T14:16:08.144Z,19.92
2023-03-08T14:21:06.652Z,15.33
2023-03-08T14:23:41.189Z,17.20
2023-03-08T14:26:31.924Z,17.95
2023-03-08T14:29:11.009Z,13.95
2023-03-08T14:31:39.227Z,13.15
2023-03-08T14:34:19.924Z,10.35
2023-03-08T14:37:00.352Z,14.65
2023-03-08T14:39:29.593Z,11.80
2023-03-08T14:41:56.821Z,16.70
2023-03-08T14:44:27.004Z,13.65
2023-03-08T14:46:58.765Z,12.38
2023-03-08T14:49:29.510Z,11.55
2023-03-08T14:51:56.575Z,14.23
2023-03-08T14:54:33.780Z,10.35
2023-03-08T14:57:23.166Z,18.50
2023-03-08T14:59:50.412Z,11.05
2023-03-08T15:02:17.527Z,10.65
2023-03-08T15:04:45.474Z,14.75
2023-03-08T15:07:34.237Z,12.50
2023-03-08T15:10:08.443Z,11.90
2023-03-08T15:12:35.098Z,14.07
2023-03-08T15:15:04.624Z,15.05
2023-03-08T15:17:31.224Z,14.23
2023-03-08T15:19:57.908Z,11.90
2023-03-08T15:22:24.688Z,13.95
2023-03-08T15:24:51.374Z,13.50
2023-03-08T15:27:17.974Z,11.77
2023-03-08T15:29:44.807Z,15.35
2023-03-08T15:32:11.699Z,11.85
2023-03-08T15:34:39.725Z,16.63
2023-03-08T15:37:07.473Z,15.93
2023-03-08T15:39:34.136Z,13.32
2023-03-08T15:42:00.921Z,13.60
2023-03-08T15:44:27.643Z,17.23
2023-03-08T15:46:54.374Z,17.80
2023-03-08T15:49:21.020Z,17.80
2023-03-08T15:51:47.734Z,16.58
2023-03-08T15:54:14.318Z,19.60
2023-03-08T15:56:41.062Z,17.70
2023-03-08T15:59:07.772Z,21.60
2023-03-08T16:01:34.559Z,28.67
2023-03-08T16:04:01.328Z,26.77
2023-03-08T16:06:28.260Z,24.35
2023-03-08T16:08:54.932Z,23.77
2023-03-08T16:11:22.555Z,24.58
2023-03-08T16:13:53.099Z,26.90
2023-03-08T16:16:20.629Z,17.63
2023-03-08T16:18:48.635Z,14.00
2023-03-08T16:21:16.889Z,14.88
2023-03-08T16:23:43.573Z,13.80
2023-03-08T16:26:16.787Z,15.10
2023-03-08T16:28:46.332Z,16.42
2023-03-08T16:31:13.551Z,15.55
2023-03-08T16:33:40.604Z,14.25
2023-03-08T16:36:07.698Z,14.85
2023-03-08T16:38:34.594Z,18.40
2023-03-08T16:41:12.210Z,19.05
2023-03-08T16:43:46.794Z,18.47
2023-03-08T16:46:20.544Z,18.17
2023-03-08T16:48:49.864Z,16.65
2023-03-08T16:51:19.579Z,15.02
2023-03-08T16:53:46.501Z,17.02
2023-03-08T16:56:26.057Z,18.88
2023-03-08T16:58:54.197Z,16.58
2023-03-08T17:01:21.439Z,16.73
2023-03-08T17:03:48.436Z,15.95
2023-03-08T17:06:21.105Z,15.98
2023-03-08T17:08:48.947Z,13.50
2023-03-08T17:11:24.718Z,14.32
2023-03-08T17:13:53.860Z,13.35
2023-03-08T17:16:23.718Z,13.50
2023-03-08T17:18:51.719Z,13.00
2023-03-08T17:21:19.979Z,14.10
2023-03-08T17:23:47.334Z,14.38
2023-03-08T17:26:15.379Z,13.55
2023-03-08T17:28:42.238Z,16.92
2023-03-08T17:31:17.597Z,13.15
2023-03-08T17:33:45.027Z,13.75
2023-03-08T17:36:13.088Z,16.75
2023-03-08T17:38:39.863Z,14.85
2023-03-08T17:41:09.755Z,27.25
2023-03-08T17:43:36.474Z,20.90
2023-03-08T17:46:07.090Z,16.00
2023-03-08T17:48:34.794Z,19.17
2023-03-08T17:51:06.652Z,17.20
2023-03-08T17:53:34.448Z,22.17
2023-03-08T17:56:04.851Z,18.40
2023-03-08T17:58:31.537Z,19.15
2023-03-08T18:00:58.337Z,19.20
2023-03-08T18:03:24.912Z,22.10
2023-03-08T18:05:53.136Z,16.73
2023-03-08T18:08:19.750Z,22.85
2023-03-08T18:10:46.319Z,18.60
2023-03-08T18:13:12.917Z,23.50
2023-03-08T18:15:39.629Z,21.55
2023-03-08T18:18:06.312Z,23.58
2023-03-08T18:20:33.013Z,18.83
2023-03-08T18:22:59.564Z,27.83
2023-03-08T18:25:26.199Z,35.33
2023-03-08T18:27:52.817Z,31.08
2023-03-08T18:30:19.666Z,26.90
2023-03-08T18:32:49.326Z,21.63
2023-03-08T18:35:16.368Z,23.40
2023-03-08T18:37:43.201Z,24.92
2023-03-08T18:40:12.067Z,26.40
2023-03-08T18:42:42.859Z,28.65
2023-03-08T18:45:11.367Z,18.95
2023-03-08T18:47:38.552Z,20.33
2023-03-08T18:50:06.428Z,17.92
2023-03-08T18:52:33.429Z,18.20
2023-03-08T18:55:00.021Z,21.80
2023-03-08T18:57:26.676Z,22.13
2023-03-08T18:59:53.326Z,19.60
2023-03-08T19:02:21.351Z,20.33
2023-03-08T19:04:48.092Z,18.15
2023-03-08T19:07:14.716Z,17.10
2023-03-08T19:09:43.716Z,18.55
2023-03-08T19:12:10.793Z,18.98
2023-03-08T19:14:37.849Z,17.17
2023-03-08T19:17:04.527Z,25.08
2023-03-08T19:19:31.348Z,22.27
2023-03-08T19:21:58.027Z,22.73
2023-03-08T19:24:26.759Z,30.95
2023-03-08T19:26:58.474Z,22.27
2023-03-08T19:29:27.873Z,25.52
2023-03-08T19:34:34.308Z,21.83
2023-03-08T19:37:01.520Z,29.45
2023-03-08T19:39:30.622Z,26.50
2023-03-08T19:42:00.125Z,34.15
2023-03-08T19:44:27.712Z,32.75
2023-03-08T19:46:54.869Z,35.47
2023-03-08T19:49:29.522Z,25.40
2023-03-08T19:51:59.707Z,34.67
2023-03-08T19:54:27.603Z,34.35
2023-03-08T19:56:55.281Z,48.22
2023-03-08T19:59:22.381Z,34.40
2023-03-08T20:01:50.695Z,36.65
2023-03-08T20:04:17.325Z,34.95
2023-03-08T20:06:46.809Z,31.20
2023-03-08T20:09:21.486Z,45.20
2023-03-08T20:11:50.873Z,28.23
2023-03-08T20:14:17.488Z,31.42
2023-03-08T20:16:44.234Z,30.42
2023-03-08T20:19:11.181Z,28.67
2023-03-08T20:21:38.282Z,22.80
2023-03-08T20:24:05.492Z,32.03
2023-03-08T20:26:34.796Z,30.23
2023-03-08T20:29:01.931Z,20.15
2023-03-08T20:31:30.317Z,29.48
2023-03-08T20:33:57.766Z,21.17
2023-03-08T20:36:24.963Z,20.27
2023-03-08T20:38:51.703Z,25.85
2023-03-08T20:41:21.146Z,27.40
2023-03-08T20:43:49.799Z,19.90
2023-03-08T20:46:18.448Z,31.53
2023-03-08T20:48:46.188Z,23.75
2023-03-08T20:51:15.728Z,24.77
2023-03-08T20:53:42.700Z,23.80
2023-03-08T20:56:13.425Z,24.50
2023-03-08T20:58:40.809Z,18.80
2023-03-08T21:01:17.143Z,24.67
2023-03-08T21:03:44.932Z,25.77
2023-03-08T21:06:20.391Z,25.40
2023-03-08T21:08:48.333Z,26.23
2023-03-08T21:11:15.887Z,25.77
2023-03-08T21:13:42.754Z,21.55
2023-03-08T21:16:13.441Z,20.27
2023-03-08T21:18:45.716Z,21.90
2023-03-08T21:21:27.189Z,27.42
2023-03-08T21:23:58.420Z,28.02
2023-03-08T21:26:26.318Z,24.48
2023-03-08T21:28:55.200Z,23.75
2023-03-08T21:31:22.394Z,24.20
2023-03-08T21:33:49.612Z,25.95
2023-03-08T21:36:16.762Z,17.95
2023-03-08T21:38:43.493Z,25.58
2023-03-08T21:41:18.121Z,19.67
2023-03-08T21:43:44.736Z,22.98
2023-03-08T21:46:11.406Z,22.83
2023-03-08T21:48:38.098Z,17.65
2023-03-08T21:51:06.233Z,17.40
2023-03-08T21:53:33.058Z,18.98
2023-03-08T21:55:59.827Z,19.80
2023-03-08T21:58:26.542Z,17.98
2023-03-08T22:00:54.267Z,23.33
2023-03-08T22:03:21.014Z,26.65
2023-03-08T22:05:47.667Z,29.25
2023-03-08T22:08:14.262Z,27.80
2023-03-08T22:10:40.896Z,26.02
2023-03-08T22:13:07.533Z,24.48
2023-03-08T22:15:34.260Z,24.38
2023-03-08T22:18:00.872Z,29.60
2023-03-08T22:20:27.603Z,27.23
2023-03-08T22:22:54.234Z,28.58
2023-03-08T22:25:20.890Z,23.02
2023-03-08T22:27:47.488Z,38.45
2023-03-08T22:30:14.462Z,34.10
2023-03-08T22:32:42.027Z,26.35
2023-03-08T22:35:10.534Z,31.80
2023-03-08T22:37:37.875Z,24.63
2023-03-08T22:40:13.193Z,27.50
2023-03-08T22:42:40.397Z,25.08
2023-03-08T22:45:08.157Z,25.90
2023-03-08T22:47:34.852Z,30.35
2023-03-08T22:50:01.672Z,28.85
2023-03-08T22:52:28.298Z,27.88
2023-03-08T22:54:54.950Z,25.98
2023-03-08T22:57:22.032Z,30.40
2023-03-08T22:59:49.309Z,30.48
2023-03-08T23:02:15.974Z,28.98
2023-03-08T23:04:42.637Z,29.50
2023-03-08T23:07:09.282Z,26.60
2023-03-08T23:09:36.613Z,28.50
2023-03-08T23:12:06.101Z,32.47
2023-03-08T23:14:33.804Z,26.05
2023-03-08T23:17:00.771Z,28.08
2023-03-08T23:19:27.605Z,27.42
2023-03-08T23:21:54.289Z,26.83
2023-03-08T23:24:20.932Z,25.42
2023-03-08T23:26:47.680Z,35.25
2023-03-08T23:29:14.821Z,28.05
2023-03-08T23:31:44.899Z,26.85
2023-03-08T23:34:11.782Z,29.45
2023-03-08T23:36:38.409Z,37.38
2023-03-08T23:39:05.010Z,30.23
2023-03-08T23:41:32.322Z,30.05
2023-03-08T23:44:00.579Z,33.25
2023-03-08T23:46:28.387Z,41.83
2023-03-08T23:48:56.890Z,48.08
2023-03-08T23:51:25.567Z,44.00
2023-03-08T23:53:54.577Z,30.73
2023-03-08T23:56:27.285Z,31.15
2023-03-08T23:58:56.432Z,41.70
